Аэропорт: Рощино. Тюмень

ICAO: USTR

METAR:
2020-08-13 11:30:00
USTR 131130Z 34005MPS CAVOK 17/07 Q1010 R30/CLRD65 R21/CLRD65 NOSIG RMK QFE748/0997
METAR:
2020-08-13 10:37:00
TAF USTR 131037Z 1312/1412 34006G14MPS 9999 SCT020 TEMPO 1312/1315 -SHRA BKN015CB BECMG 1315/1316 35003MPS